Time;durP1;ratioP1;P1;durP2;ratioP2;P2;SDS_P1;SDS_P2;PMS_P1;PMS_P2;Temp;Humidity;BMP_temperature;BMP_pressure;BME280_temperature;BME280_humidity;BME280_pressure;Samples;Min_cycle;Max_cycle;Signal;HPM_P1;HPM_P2
2021/03/06 09:04:59;;;;;;;1999.90;999.90;;;;;;;;;;5081171;28;20567;-75
2021/03/06 09:07:26;;;;;;;1999.90;999.90;;;;;;;;;;5067959;28;20028;-74
2021/03/06 09:09:51;;;;;;;1999.90;999.90;;;;;;;;;;5056886;28;20044;-75
2021/03/06 09:12:16;;;;;;;1999.90;999.90;;;;;;;;;;5063700;28;20473;-75
2021/03/06 09:14:42;;;;;;;1999.90;999.90;;;;;;;;;;5057929;28;20052;-74
2021/03/06 09:17:10;;;;;;;1999.90;999.90;;;;;;;;;;5059300;28;20051;-73
2021/03/06 09:19:36;;;;;;;257.50;233.38;;;;;;;;;;5053768;28;20457;-74
2021/03/06 09:22:03;;;;;;;249.40;226.38;;;;;;;;;;5051390;28;20060;-74
2021/03/06 09:24:48;;;;;;;252.27;228.63;;;;;;;;;;5065318;28;20031;-74
2021/03/06 09:27:14;;;;;;;232.10;209.73;;;;;;;;;;5051555;28;20033;-75
2021/03/06 09:29:40;;;;;;;231.10;208.40;;;;;;;;;;5049844;28;20127;-76
2021/03/06 09:32:07;;;;;;;236.18;213.65;;;;;;;;;;5047923;28;20029;-75
2021/03/06 09:34:32;;;;;;;229.38;207.77;;;;;;;;;;5056202;28;20047;-74
2021/03/06 09:36:57;;;;;;;212.82;192.07;;;;;;;;;;5050424;28;20029;-74
2021/03/06 09:39:23;;;;;;;223.00;202.30;;;;;;;;;;5058780;28;20055;-75
2021/03/06 09:41:49;;;;;;;215.38;194.73;;;;;;;;;;5060399;28;20392;-75
2021/03/06 09:44:15;;;;;;;209.63;189.15;;;;;;;;;;5052710;28;20127;-75
2021/03/06 09:46:41;;;;;;;207.23;187.85;;;;;;;;;;5062227;28;20029;-76
2021/03/06 09:49:09;;;;;;;202.63;182.57;;;;;;;;;;5063350;28;20024;-76
2021/03/06 09:51:39;;;;;;;200.32;181.60;;;;;;;;;;5062896;28;20036;-75
2021/03/06 09:54:04;;;;;;;201.35;182.93;;;;;;;;;;5047121;28;20032;-75
2021/03/06 09:56:30;;;;;;;204.65;186.20;;;;;;;;;;5052264;28;20020;-75
2021/03/06 09:59:03;;;;;;;194.45;176.52;;;;;;;;;;5057972;28;20083;-75
2021/03/06 10:01:29;;;;;;;200.05;181.55;;;;;;;;;;5059523;28;20024;-75
2021/03/06 10:03:54;;;;;;;189.88;172.52;;;;;;;;;;5056080;28;20095;-75
2021/03/06 10:06:21;;;;;;;193.50;175.48;;;;;;;;;;5062561;28;20037;-81
2021/03/06 10:08:56;;;;;;;192.38;174.27;;;;;;;;;;5058987;28;20025;-77
2021/03/06 10:11:36;;;;;;;183.15;166.73;;;;;;;;;;5061997;28;20082;-77
2021/03/06 10:14:01;;;;;;;183.55;167.00;;;;;;;;;;5058249;28;20028;-76
2021/03/06 10:16:27;;;;;;;182.90;166.57;;;;;;;;;;5046085;28;20484;-78
2021/03/06 10:18:53;;;;;;;176.05;160.50;;;;;;;;;;5044195;28;20524;-78
2021/03/06 10:21:19;;;;;;;176.10;159.88;;;;;;;;;;5048497;28;20025;-77
2021/03/06 10:23:45;;;;;;;173.18;157.68;;;;;;;;;;5048951;28;20041;-77
2021/03/06 10:26:15;;;;;;;171.55;156.18;;;;;;;;;;5046667;28;20373;-77
2021/03/06 10:28:40;;;;;;;168.73;152.95;;;;;;;;;;5047664;28;20492;-77
2021/03/06 10:31:05;;;;;;;170.15;155.65;;;;;;;;;;5047480;28;20025;-79
2021/03/06 10:33:36;;;;;;;167.95;152.75;;;;;;;;;;5051248;28;20577;-78
2021/03/06 10:36:13;;;;;;;169.10;154.35;;;;;;;;;;5041210;28;20171;-79
2021/03/06 10:38:39;;;;;;;172.18;156.07;;;;;;;;;;5045482;28;20029;-78
2021/03/06 10:41:07;;;;;;;165.60;151.73;;;;;;;;;;5047826;28;20026;-78
2021/03/06 10:43:34;;;;;;;158.32;144.32;;;;;;;;;;5048018;28;20400;-78
2021/03/06 10:46:19;;;;;;;154.27;141.73;;;;;;;;;;5040325;28;20026;-78
2021/03/06 10:48:50;;;;;;;207.30;188.95;;;;;;;;;;5041631;28;20036;-77
2021/03/06 10:51:15;;;;;;;147.05;135.02;;;;;;;;;;5041466;28;20030;-78
2021/03/06 10:53:41;;;;;;;130.63;120.88;;;;;;;;;;5046820;28;20025;-78
2021/03/06 10:56:18;;;;;;;121.43;111.82;;;;;;;;;;5045490;28;20029;-80
2021/03/06 10:58:44;;;;;;;145.13;133.95;;;;;;;;;;5041723;28;20491;-77
2021/03/06 11:01:11;;;;;;;107.32;98.88;;;;;;;;;;5046933;28;20029;-79
2021/03/06 11:03:41;;;;;;;110.45;100.57;;;;;;;;;;5047337;28;20044;-77
2021/03/06 11:06:06;;;;;;;95.10;87.93;;;;;;;;;;5062802;28;20043;-79
2021/03/06 11:08:32;;;;;;;95.93;87.50;;;;;;;;;;5043149;28;20760;-81
2021/03/06 11:10:58;;;;;;;96.43;89.28;;;;;;;;;;5045745;28;20484;-79
2021/03/06 11:13:35;;;;;;;97.70;90.28;;;;;;;;;;5043564;28;20041;-80
2021/03/06 11:16:01;;;;;;;91.45;84.35;;;;;;;;;;5042828;28;20036;-80
2021/03/06 11:18:26;;;;;;;105.63;97.35;;;;;;;;;;5042205;28;20018;-80
2021/03/06 11:20:52;;;;;;;105.85;97.57;;;;;;;;;;5045349;28;20125;-80
2021/03/06 11:23:17;;;;;;;82.90;76.55;;;;;;;;;;5041590;28;20072;-81
2021/03/06 11:25:43;;;;;;;79.72;74.18;;;;;;;;;;5047782;28;20381;-80
2021/03/06 11:28:09;;;;;;;78.50;72.55;;;;;;;;;;5046434;28;20465;-81
2021/03/06 11:30:34;;;;;;;70.18;64.88;;;;;;;;;;5047448;28;20025;-81
2021/03/06 11:33:00;;;;;;;65.53;60.70;;;;;;;;;;5049652;28;20423;-80
2021/03/06 11:35:26;;;;;;;69.03;63.58;;;;;;;;;;5044937;28;20431;-81
2021/03/06 11:37:52;;;;;;;75.65;70.25;;;;;;;;;;5035749;28;20020;-81
2021/03/06 11:40:19;;;;;;;67.18;61.75;;;;;;;;;;5049154;28;20474;-81
2021/03/06 11:42:44;;;;;;;71.60;65.72;;;;;;;;;;5042347;28;20477;-80
2021/03/06 11:45:11;;;;;;;64.18;59.72;;;;;;;;;;5044814;28;20036;-77
2021/03/06 11:47:36;;;;;;;69.85;64.40;;;;;;;;;;5040583;28;20021;-77
2021/03/06 11:50:03;;;;;;;67.85;62.22;;;;;;;;;;5049777;28;20079;-78
2021/03/06 11:52:28;;;;;;;77.13;71.28;;;;;;;;;;5044260;28;20025;-79
2021/03/06 11:54:54;;;;;;;73.00;66.93;;;;;;;;;;5056752;28;20353;-78
2021/03/06 11:57:19;;;;;;;71.35;65.65;;;;;;;;;;5047518;28;20021;-78
2021/03/06 11:59:44;;;;;;;80.65;74.57;;;;;;;;;;5049046;28;20108;-79
2021/03/06 12:02:10;;;;;;;73.57;68.18;;;;;;;;;;5046842;28;20422;-78
2021/03/06 12:04:35;;;;;;;74.53;68.18;;;;;;;;;;5057127;28;20041;-78
2021/03/06 12:07:01;;;;;;;76.72;71.10;;;;;;;;;;5039157;28;20486;-78
2021/03/06 12:09:26;;;;;;;77.25;70.88;;;;;;;;;;5043126;28;20040;-79
2021/03/06 12:11:51;;;;;;;87.28;80.68;;;;;;;;;;5037944;28;20025;-77
2021/03/06 12:14:17;;;;;;;67.93;62.70;;;;;;;;;;5049157;28;20039;-78
2021/03/06 12:16:42;;;;;;;64.13;59.70;;;;;;;;;;5043059;28;20477;-78
2021/03/06 12:19:08;;;;;;;63.53;58.00;;;;;;;;;;5043800;28;20025;-78
2021/03/06 12:21:34;;;;;;;63.90;58.63;;;;;;;;;;5046090;28;20552;-78
2021/03/06 12:23:59;;;;;;;68.65;63.42;;;;;;;;;;5037337;28;20045;-78
2021/03/06 12:26:25;;;;;;;68.07;62.55;;;;;;;;;;5038488;28;20021;-78
2021/03/06 12:28:51;;;;;;;69.57;63.53;;;;;;;;;;5036086;28;20107;-79
2021/03/06 12:31:16;;;;;;;67.65;62.97;;;;;;;;;;5040874;28;20025;-78
2021/03/06 12:33:42;;;;;;;73.13;67.15;;;;;;;;;;5043666;28;20504;-79
2021/03/06 12:36:07;;;;;;;66.80;61.40;;;;;;;;;;5046952;28;20121;-72
2021/03/06 12:38:33;;;;;;;82.18;75.68;;;;;;;;;;5045289;28;20106;-81
2021/03/06 12:40:58;;;;;;;72.07;66.35;;;;;;;;;;5044441;28;20372;-79
2021/03/06 12:43:24;;;;;;;73.13;66.70;;;;;;;;;;5048187;28;20040;-81
2021/03/06 12:45:50;;;;;;;102.00;94.20;;;;;;;;;;5038724;28;20566;-79
2021/03/06 12:48:15;;;;;;;72.05;65.10;;;;;;;;;;5051348;28;20108;-78
2021/03/06 12:50:40;;;;;;;64.03;59.35;;;;;;;;;;5043413;28;20025;-78
2021/03/06 12:53:06;;;;;;;73.90;68.80;;;;;;;;;;5044906;28;20104;-79
2021/03/06 12:55:31;;;;;;;80.72;74.05;;;;;;;;;;5041065;28;20365;-79
2021/03/06 12:57:57;;;;;;;80.47;72.97;;;;;;;;;;5039156;28;20655;-79
2021/03/06 13:00:22;;;;;;;77.13;71.13;;;;;;;;;;5054923;28;20106;-80
2021/03/06 13:02:48;;;;;;;82.00;75.30;;;;;;;;;;5047042;28;20470;-79
2021/03/06 13:05:14;;;;;;;87.88;80.28;;;;;;;;;;5043695;28;20037;-80
2021/03/06 13:07:39;;;;;;;85.03;78.43;;;;;;;;;;5048402;28;20151;-80
2021/03/06 13:10:05;;;;;;;85.68;79.13;;;;;;;;;;5042846;28;20021;-80
2021/03/06 13:12:30;;;;;;;84.50;78.18;;;;;;;;;;5049315;28;20047;-79
2021/03/06 13:14:56;;;;;;;85.18;78.60;;;;;;;;;;5047940;28;20021;-79
2021/03/06 13:17:22;;;;;;;85.28;78.90;;;;;;;;;;5048790;28;20029;-79
2021/03/06 13:19:47;;;;;;;85.00;78.18;;;;;;;;;;5047220;28;20032;-78
2021/03/06 13:22:12;;;;;;;84.95;78.13;;;;;;;;;;5039413;28;20485;-79
2021/03/06 13:24:38;;;;;;;91.72;84.80;;;;;;;;;;5042858;28;20045;-79
2021/03/06 13:27:03;;;;;;;94.38;87.45;;;;;;;;;;5043551;28;20033;-79
2021/03/06 13:29:29;;;;;;;97.55;89.05;;;;;;;;;;5048619;28;20481;-79
2021/03/06 13:31:54;;;;;;;79.28;73.80;;;;;;;;;;5058855;28;20032;-79
2021/03/06 13:34:19;;;;;;;79.13;73.25;;;;;;;;;;5048981;28;20040;-79
2021/03/06 13:36:45;;;;;;;140.85;129.13;;;;;;;;;;5042506;28;20116;-80
2021/03/06 13:39:10;;;;;;;80.93;75.28;;;;;;;;;;5044476;28;20548;-80
2021/03/06 13:41:36;;;;;;;84.35;78.00;;;;;;;;;;5042363;28;20029;-81
2021/03/06 13:44:01;;;;;;;81.43;74.72;;;;;;;;;;5045124;28;20052;-80
2021/03/06 13:46:27;;;;;;;77.55;71.53;;;;;;;;;;5047553;28;20064;-81
2021/03/06 13:48:52;;;;;;;86.63;79.85;;;;;;;;;;5046949;28;20024;-80
2021/03/06 13:51:18;;;;;;;84.38;77.75;;;;;;;;;;5050361;28;20078;-80
2021/03/06 13:53:43;;;;;;;78.53;72.95;;;;;;;;;;5056910;28;20044;-79
2021/03/06 13:56:09;;;;;;;77.32;71.88;;;;;;;;;;5043469;28;20053;-79
2021/03/06 13:58:34;;;;;;;79.57;72.88;;;;;;;;;;5035503;28;20485;-80
2021/03/06 14:01:00;;;;;;;84.97;78.70;;;;;;;;;;5042986;28;20021;-79
2021/03/06 14:03:25;;;;;;;73.13;67.93;;;;;;;;;;5045880;28;20072;-79
2021/03/06 14:05:50;;;;;;;75.63;69.90;;;;;;;;;;5037545;28;20025;-79
2021/03/06 14:08:16;;;;;;;78.43;72.57;;;;;;;;;;5048685;28;20021;-79
2021/03/06 14:10:41;;;;;;;81.68;74.70;;;;;;;;;;5049903;28;20131;-80
2021/03/06 14:13:06;;;;;;;75.47;69.82;;;;;;;;;;5041136;28;20025;-79
2021/03/06 14:15:32;;;;;;;82.43;76.60;;;;;;;;;;5054036;28;20029;-79
2021/03/06 14:17:57;;;;;;;81.13;74.68;;;;;;;;;;5041319;28;20029;-80
2021/03/06 14:20:23;;;;;;;81.93;75.15;;;;;;;;;;5052966;28;20036;-79
2021/03/06 14:22:48;;;;;;;111.57;102.90;;;;;;;;;;5039139;28;20028;-79
2021/03/06 14:25:13;;;;;;;84.85;77.97;;;;;;;;;;5051619;28;20020;-79
2021/03/06 14:27:39;;;;;;;84.10;77.85;;;;;;;;;;5051378;28;20041;-80
2021/03/06 14:30:05;;;;;;;83.68;77.07;;;;;;;;;;5041079;28;20040;-79
2021/03/06 14:32:31;;;;;;;81.72;75.97;;;;;;;;;;5045974;28;20089;-80
2021/03/06 14:34:56;;;;;;;97.50;90.25;;;;;;;;;;5043232;28;20064;-79
2021/03/06 14:37:22;;;;;;;74.07;68.78;;;;;;;;;;5049039;28;20059;-79
2021/03/06 14:39:48;;;;;;;83.13;77.07;;;;;;;;;;5050483;28;20029;-79
2021/03/06 14:42:14;;;;;;;90.93;84.60;;;;;;;;;;5054009;28;20103;-79
2021/03/06 14:44:39;;;;;;;112.63;104.43;;;;;;;;;;5055065;28;20135;-79
2021/03/06 14:47:05;;;;;;;93.13;86.38;;;;;;;;;;5046294;28;20030;-79
2021/03/06 14:49:30;;;;;;;95.60;87.60;;;;;;;;;;5049521;28;20528;-80
2021/03/06 14:51:55;;;;;;;101.18;93.70;;;;;;;;;;5046245;28;20017;-79
2021/03/06 14:54:21;;;;;;;96.20;89.50;;;;;;;;;;5049505;28;20056;-82
2021/03/06 14:56:46;;;;;;;90.85;84.57;;;;;;;;;;5042476;28;20465;-77
2021/03/06 14:59:12;;;;;;;174.38;158.05;;;;;;;;;;5051239;28;20488;-80
2021/03/06 15:01:37;;;;;;;97.63;90.70;;;;;;;;;;5047368;28;20024;-83
2021/03/06 15:04:03;;;;;;;139.93;129.48;;;;;;;;;;5045769;28;20497;-80
2021/03/06 15:06:28;;;;;;;100.90;92.97;;;;;;;;;;5052350;28;20033;-79
2021/03/06 15:08:53;;;;;;;104.35;97.13;;;;;;;;;;5046794;28;20033;-82
2021/03/06 15:11:19;;;;;;;110.32;102.43;;;;;;;;;;5050388;28;20075;-82
2021/03/06 15:13:45;;;;;;;119.88;110.80;;;;;;;;;;5048251;28;20037;-81
2021/03/06 15:16:10;;;;;;;114.85;106.80;;;;;;;;;;5051065;28;20026;-79
2021/03/06 15:18:36;;;;;;;242.70;219.05;;;;;;;;;;5039456;28;20112;-80
2021/03/06 15:21:01;;;;;;;125.43;115.97;;;;;;;;;;5040284;28;20056;-79
2021/03/06 15:23:26;;;;;;;118.20;109.20;;;;;;;;;;5048591;28;20025;-80
2021/03/06 15:25:52;;;;;;;123.03;113.18;;;;;;;;;;5043336;28;20071;-79
2021/03/06 15:28:17;;;;;;;131.02;120.95;;;;;;;;;;5041070;28;20037;-80
2021/03/06 15:30:43;;;;;;;281.38;256.85;;;;;;;;;;5047320;28;20029;-78
2021/03/06 15:33:08;;;;;;;114.13;105.03;;;;;;;;;;5042542;28;20025;-79
2021/03/06 15:35:34;;;;;;;120.07;111.20;;;;;;;;;;5049227;28;20077;-79
2021/03/06 15:38:01;;;;;;;156.02;143.20;;;;;;;;;;5047514;28;20029;-79
2021/03/06 15:40:27;;;;;;;115.20;106.30;;;;;;;;;;5049217;28;20017;-79
2021/03/06 15:42:52;;;;;;;120.03;111.05;;;;;;;;;;5046073;28;20028;-78
2021/03/06 15:45:18;;;;;;;124.03;113.43;;;;;;;;;;5049315;28;20051;-80
2021/03/06 15:47:44;;;;;;;133.68;124.22;;;;;;;;;;5046720;28;20039;-80
2021/03/06 15:50:10;;;;;;;120.75;111.45;;;;;;;;;;5048523;28;20210;-79
2021/03/06 15:52:38;;;;;;;124.88;114.70;;;;;;;;;;5046820;28;20068;-79
2021/03/06 15:55:04;;;;;;;123.07;114.13;;;;;;;;;;5047242;28;20067;-79
2021/03/06 15:57:29;;;;;;;121.05;111.45;;;;;;;;;;5051907;28;20384;-80
2021/03/06 15:59:55;;;;;;;119.60;110.53;;;;;;;;;;5050459;28;20026;-81
2021/03/06 16:02:20;;;;;;;119.75;110.80;;;;;;;;;;5048175;28;20562;-68
2021/03/06 16:04:46;;;;;;;160.75;147.68;;;;;;;;;;5044706;28;20054;-78
2021/03/06 16:07:11;;;;;;;116.53;107.40;;;;;;;;;;5046310;28;20060;-80
2021/03/06 16:09:36;;;;;;;126.72;116.88;;;;;;;;;;5048343;28;20021;-79
2021/03/06 16:12:02;;;;;;;129.98;118.05;;;;;;;;;;5049005;28;20065;-78
2021/03/06 16:14:28;;;;;;;122.65;112.72;;;;;;;;;;5049664;28;20021;-78
2021/03/06 16:16:53;;;;;;;125.35;116.07;;;;;;;;;;5047709;28;20029;-79
2021/03/06 16:19:19;;;;;;;120.20;111.10;;;;;;;;;;5051022;28;20389;-80
2021/03/06 16:21:44;;;;;;;163.48;148.80;;;;;;;;;;5046362;28;20033;-79
2021/03/06 16:24:10;;;;;;;118.60;110.18;;;;;;;;;;5050024;28;20112;-79
2021/03/06 16:26:36;;;;;;;118.07;108.60;;;;;;;;;;5047061;28;20060;-79
2021/03/06 16:29:02;;;;;;;122.30;112.68;;;;;;;;;;5049614;28;20028;-80
2021/03/06 16:31:27;;;;;;;121.25;111.72;;;;;;;;;;5045220;28;20111;-78
2021/03/06 16:33:53;;;;;;;113.97;104.97;;;;;;;;;;5044904;28;20137;-77
2021/03/06 16:36:18;;;;;;;121.20;112.18;;;;;;;;;;5044185;28;20456;-78
2021/03/06 16:38:43;;;;;;;137.00;125.65;;;;;;;;;;5047129;28;20040;-77
2021/03/06 16:41:09;;;;;;;108.20;100.03;;;;;;;;;;5049634;28;20029;-77
2021/03/06 16:43:34;;;;;;;103.13;95.30;;;;;;;;;;5054190;28;20107;-77
2021/03/06 16:46:00;;;;;;;113.35;104.35;;;;;;;;;;5038511;28;20718;-78
2021/03/06 16:48:25;;;;;;;116.70;108.07;;;;;;;;;;5039008;28;20493;-76
2021/03/06 16:50:50;;;;;;;121.97;112.05;;;;;;;;;;5046819;28;20060;-78
2021/03/06 16:53:16;;;;;;;121.65;111.60;;;;;;;;;;5052437;28;20086;-76
2021/03/06 16:55:43;;;;;;;116.05;107.03;;;;;;;;;;5045028;28;20430;-76
2021/03/06 16:58:09;;;;;;;142.40;131.13;;;;;;;;;;5039432;28;20437;-78
2021/03/06 17:00:35;;;;;;;137.98;125.97;;;;;;;;;;5040771;28;20073;-75
2021/03/06 17:03:01;;;;;;;116.75;106.90;;;;;;;;;;5038075;28;20037;-75
2021/03/06 17:05:27;;;;;;;114.63;105.50;;;;;;;;;;5042332;28;20500;-77
2021/03/06 17:07:52;;;;;;;116.38;107.18;;;;;;;;;;5040756;28;20029;-80
2021/03/06 17:10:18;;;;;;;113.70;105.30;;;;;;;;;;5039874;28;20443;-76
2021/03/06 17:12:43;;;;;;;113.63;104.35;;;;;;;;;;5046146;28;20022;-75
2021/03/06 17:15:09;;;;;;;119.15;109.47;;;;;;;;;;5042729;28;20087;-75
2021/03/06 17:17:34;;;;;;;115.30;106.13;;;;;;;;;;5046009;28;20029;-72
2021/03/06 17:19:59;;;;;;;122.55;112.45;;;;;;;;;;5045083;28;20044;-73
2021/03/06 17:22:25;;;;;;;122.30;112.15;;;;;;;;;;5041945;28;20028;-74
2021/03/06 17:24:51;;;;;;;126.65;117.15;;;;;;;;;;5046383;28;20033;-74
2021/03/06 17:27:18;;;;;;;123.72;114.13;;;;;;;;;;5051042;28;20016;-75
2021/03/06 17:29:44;;;;;;;123.45;113.28;;;;;;;;;;5049270;28;20055;-74
2021/03/06 17:32:09;;;;;;;116.00;106.90;;;;;;;;;;5050078;28;20453;-76
2021/03/06 17:34:35;;;;;;;116.75;107.07;;;;;;;;;;5047288;28;20025;-74
2021/03/06 17:37:00;;;;;;;116.80;108.07;;;;;;;;;;5046614;28;20028;-73
2021/03/06 17:39:25;;;;;;;119.43;109.85;;;;;;;;;;5048073;28;20036;-74
2021/03/06 17:41:51;;;;;;;115.05;106.35;;;;;;;;;;5047433;28;20025;-73
2021/03/06 17:44:16;;;;;;;119.80;110.63;;;;;;;;;;5047094;28;20041;-76
2021/03/06 17:46:42;;;;;;;114.93;106.13;;;;;;;;;;5047183;28;20029;-75
2021/03/06 17:49:07;;;;;;;117.57;108.78;;;;;;;;;;5051998;28;20120;-75
2021/03/06 17:51:32;;;;;;;118.82;109.22;;;;;;;;;;5048807;28;20017;-75
2021/03/06 17:53:58;;;;;;;118.95;109.55;;;;;;;;;;5045520;28;20025;-75
2021/03/06 17:56:26;;;;;;;112.05;103.63;;;;;;;;;;5050284;28;20104;-80
2021/03/06 17:58:52;;;;;;;119.18;109.80;;;;;;;;;;5048607;28;20109;-76
2021/03/06 18:01:17;;;;;;;116.20;107.00;;;;;;;;;;5052127;28;20013;-81
2021/03/06 18:03:43;;;;;;;110.53;102.38;;;;;;;;;;5053504;28;20499;-78
2021/03/06 18:06:08;;;;;;;118.50;109.00;;;;;;;;;;5049578;28;20021;-76
2021/03/06 18:08:34;;;;;;;114.32;105.32;;;;;;;;;;5048773;28;20035;-77
2021/03/06 18:10:59;;;;;;;117.38;108.15;;;;;;;;;;5052646;28;20025;-76
2021/03/06 18:13:25;;;;;;;118.72;109.47;;;;;;;;;;5051416;28;20049;-77
2021/03/06 18:15:50;;;;;;;115.70;106.80;;;;;;;;;;5042316;28;20031;-80
2021/03/06 18:18:16;;;;;;;110.22;101.70;;;;;;;;;;5049764;28;20040;-79
2021/03/06 18:20:41;;;;;;;115.85;106.50;;;;;;;;;;5044537;28;20401;-78
2021/03/06 18:23:08;;;;;;;113.97;105.15;;;;;;;;;;5047620;28;20123;-78
2021/03/06 18:25:33;;;;;;;114.88;105.05;;;;;;;;;;5051042;28;20021;-78
2021/03/06 18:27:59;;;;;;;114.55;105.80;;;;;;;;;;5050360;28;20032;-78
2021/03/06 18:30:25;;;;;;;129.05;118.78;;;;;;;;;;5040611;28;20029;-78
2021/03/06 18:32:51;;;;;;;118.57;109.25;;;;;;;;;;5050739;28;20830;-81
2021/03/06 18:35:18;;;;;;;120.72;111.30;;;;;;;;;;5053322;28;20020;-81
2021/03/06 18:37:44;;;;;;;156.10;143.75;;;;;;;;;;5045283;28;20152;-81
2021/03/06 18:40:10;;;;;;;116.40;107.13;;;;;;;;;;5047890;28;20045;-78
2021/03/06 18:42:35;;;;;;;115.20;106.68;;;;;;;;;;5043583;28;20063;-81
2021/03/06 18:45:01;;;;;;;122.13;111.55;;;;;;;;;;5045510;28;20121;-81
2021/03/06 18:47:26;;;;;;;118.68;109.07;;;;;;;;;;5053993;28;20103;-81
2021/03/06 18:49:52;;;;;;;117.57;106.93;;;;;;;;;;5044821;28;20029;-81
2021/03/06 18:52:17;;;;;;;117.22;108.00;;;;;;;;;;5051718;28;20021;-81
2021/03/06 18:54:42;;;;;;;120.43;109.47;;;;;;;;;;5049176;28;20138;-80
2021/03/06 18:57:08;;;;;;;118.72;109.20;;;;;;;;;;5051697;28;20350;-82
2021/03/06 18:59:33;;;;;;;120.03;110.35;;;;;;;;;;5047702;28;20107;-81
2021/03/06 19:01:59;;;;;;;119.82;108.97;;;;;;;;;;5050157;28;20029;-82
2021/03/06 19:04:24;;;;;;;122.82;113.05;;;;;;;;;;5043983;28;20059;-80
2021/03/06 19:06:50;;;;;;;121.03;111.53;;;;;;;;;;5045308;28;20033;-82
2021/03/06 19:09:15;;;;;;;119.45;110.55;;;;;;;;;;5045210;28;20028;-80
2021/03/06 19:11:41;;;;;;;114.57;104.95;;;;;;;;;;5038080;28;20469;-81
2021/03/06 19:14:06;;;;;;;125.25;114.85;;;;;;;;;;5050875;28;20033;-81
2021/03/06 19:16:32;;;;;;;123.85;113.90;;;;;;;;;;5047303;28;20362;-81
2021/03/06 19:18:59;;;;;;;134.07;122.82;;;;;;;;;;5036984;28;20029;-81
2021/03/06 19:21:25;;;;;;;126.10;115.18;;;;;;;;;;5047100;28;20532;-81
2021/03/06 19:23:50;;;;;;;125.95;115.05;;;;;;;;;;5046322;28;20041;-81
2021/03/06 19:26:16;;;;;;;130.70;119.40;;;;;;;;;;5047281;28;20465;-82
2021/03/06 19:28:41;;;;;;;127.78;117.32;;;;;;;;;;5044097;28;20018;-82
2021/03/06 19:31:07;;;;;;;122.28;111.45;;;;;;;;;;5045516;28;20124;-82
2021/03/06 19:33:32;;;;;;;126.70;114.70;;;;;;;;;;5055405;28;20032;-81
2021/03/06 19:35:57;;;;;;;131.02;119.55;;;;;;;;;;5053382;28;20073;-82
2021/03/06 19:38:24;;;;;;;131.25;119.75;;;;;;;;;;5042751;28;20030;-82
2021/03/06 19:40:49;;;;;;;137.45;125.35;;;;;;;;;;5040086;28;20034;-81
2021/03/06 19:43:15;;;;;;;130.57;119.35;;;;;;;;;;5039403;28;20043;-81
2021/03/06 19:45:41;;;;;;;134.30;122.30;;;;;;;;;;5048165;28;20041;-81
2021/03/06 19:48:07;;;;;;;142.68;130.85;;;;;;;;;;5047800;28;20389;-80
2021/03/06 19:50:32;;;;;;;132.57;120.80;;;;;;;;;;5045266;28;20021;-81
2021/03/06 19:52:58;;;;;;;139.55;127.80;;;;;;;;;;5048110;28;20553;-81
2021/03/06 19:55:23;;;;;;;156.45;142.50;;;;;;;;;;5048424;28;20025;-81
2021/03/06 19:57:49;;;;;;;131.10;119.50;;;;;;;;;;5043597;28;20467;-82
2021/03/06 20:00:14;;;;;;;138.15;126.03;;;;;;;;;;5046701;28;20033;-82
2021/03/06 20:02:40;;;;;;;138.48;126.57;;;;;;;;;;5049542;28;20090;-81
2021/03/06 20:05:06;;;;;;;134.00;121.95;;;;;;;;;;5067834;28;20436;-82
2021/03/06 20:07:32;;;;;;;202.60;185.85;;;;;;;;;;5066640;28;20039;-81
2021/03/06 20:09:57;;;;;;;131.55;119.97;;;;;;;;;;5065582;28;20045;-80
2021/03/06 20:12:22;;;;;;;140.23;127.97;;;;;;;;;;5058842;28;20472;-79
2021/03/06 20:14:48;;;;;;;206.48;187.68;;;;;;;;;;5059841;28;20034;-79
2021/03/06 20:17:14;;;;;;;142.07;128.32;;;;;;;;;;5068651;28;20040;-81
2021/03/06 20:19:41;;;;;;;193.38;176.52;;;;;;;;;;5068863;28;20020;-81
2021/03/06 20:22:08;;;;;;;148.35;135.32;;;;;;;;;;5069678;28;20466;-81
2021/03/06 20:24:33;;;;;;;139.80;126.82;;;;;;;;;;5065701;28;20102;-80
2021/03/06 20:26:59;;;;;;;138.02;125.65;;;;;;;;;;5062043;28;20389;-80
2021/03/06 20:29:25;;;;;;;137.70;125.50;;;;;;;;;;5067213;28;20040;-81
2021/03/06 20:31:52;;;;;;;141.15;128.85;;;;;;;;;;5062245;28;20436;-81
2021/03/06 20:34:18;;;;;;;141.45;127.93;;;;;;;;;;5072282;28;20560;-80
2021/03/06 20:36:43;;;;;;;134.85;122.47;;;;;;;;;;5064920;28;20032;-80
2021/03/06 20:39:08;;;;;;;136.43;123.95;;;;;;;;;;5072787;28;20033;-81
2021/03/06 20:41:34;;;;;;;156.55;143.32;;;;;;;;;;5066764;28;20020;-80
2021/03/06 20:43:59;;;;;;;135.20;123.18;;;;;;;;;;5056766;28;20575;-80
2021/03/06 20:46:25;;;;;;;160.60;147.18;;;;;;;;;;5058332;28;20025;-80
2021/03/06 20:48:51;;;;;;;130.57;118.90;;;;;;;;;;5059830;28;20058;-81
2021/03/06 20:51:16;;;;;;;141.02;128.10;;;;;;;;;;5059956;28;20024;-80
2021/03/06 20:53:42;;;;;;;130.30;119.05;;;;;;;;;;5059222;28;20495;-80
2021/03/06 20:56:09;;;;;;;136.15;123.78;;;;;;;;;;5067758;28;20536;-76
2021/03/06 20:58:35;;;;;;;135.95;124.25;;;;;;;;;;5062348;28;20036;-80
2021/03/06 21:01:00;;;;;;;171.65;157.27;;;;;;;;;;5064307;28;20017;-85
2021/03/06 21:03:26;;;;;;;134.68;122.65;;;;;;;;;;5060521;28;20053;-77
2021/03/06 21:05:51;;;;;;;130.65;118.80;;;;;;;;;;5060460;28;20028;-79
2021/03/06 21:08:16;;;;;;;139.90;128.05;;;;;;;;;;5067323;28;20075;-78
2021/03/06 21:10:42;;;;;;;137.80;125.57;;;;;;;;;;5058004;28;20028;-78
2021/03/06 21:13:07;;;;;;;168.60;154.15;;;;;;;;;;5057803;28;20443;-77
2021/03/06 21:15:33;;;;;;;137.68;125.90;;;;;;;;;;5060903;28;20438;-76
2021/03/06 21:17:58;;;;;;;174.80;159.38;;;;;;;;;;5065355;28;20043;-77
2021/03/06 21:20:24;;;;;;;210.73;191.80;;;;;;;;;;5065271;28;20028;-78
2021/03/06 21:22:49;;;;;;;136.18;123.90;;;;;;;;;;5065248;28;20078;-79
2021/03/06 21:25:15;;;;;;;141.23;128.95;;;;;;;;;;5062070;28;20031;-80
2021/03/06 21:27:40;;;;;;;172.98;158.00;;;;;;;;;;5066559;28;20729;-79
2021/03/06 21:30:06;;;;;;;137.68;124.65;;;;;;;;;;5064075;28;20389;-81
2021/03/06 21:32:32;;;;;;;149.73;136.63;;;;;;;;;;5062099;28;20064;-81
2021/03/06 21:34:57;;;;;;;140.10;127.65;;;;;;;;;;5058940;28;20055;-80
2021/03/06 21:37:23;;;;;;;141.88;129.63;;;;;;;;;;5060709;28;20029;-64
2021/03/06 21:39:48;;;;;;;142.10;128.95;;;;;;;;;;5063364;28;20047;-78
2021/03/06 21:42:13;;;;;;;144.95;131.50;;;;;;;;;;5062321;28;20040;-75
2021/03/06 21:44:39;;;;;;;151.50;137.20;;;;;;;;;;5061308;28;20028;-80
2021/03/06 21:47:04;;;;;;;192.20;175.65;;;;;;;;;;5061301;28;20037;-79
2021/03/06 21:49:30;;;;;;;147.73;133.95;;;;;;;;;;5064744;28;20017;-80
2021/03/06 21:51:55;;;;;;;143.40;130.98;;;;;;;;;;5069290;28;20396;-80
2021/03/06 21:54:20;;;;;;;142.07;128.55;;;;;;;;;;5071681;28;20025;-82
2021/03/06 21:56:46;;;;;;;282.00;256.55;;;;;;;;;;5070805;28;20495;-77
2021/03/06 21:59:11;;;;;;;191.90;175.25;;;;;;;;;;5063272;28;20023;-77
2021/03/06 22:01:37;;;;;;;149.68;136.30;;;;;;;;;;5065502;28;20032;-77
2021/03/06 22:04:02;;;;;;;146.23;131.38;;;;;;;;;;5065050;28;20040;-77
2021/03/06 22:06:27;;;;;;;150.95;137.20;;;;;;;;;;5064558;28;20028;-77
2021/03/06 22:08:53;;;;;;;146.95;133.48;;;;;;;;;;5058161;28;20032;-76
2021/03/06 22:11:18;;;;;;;151.60;136.43;;;;;;;;;;5056879;28;20051;-77
2021/03/06 22:13:43;;;;;;;151.50;136.68;;;;;;;;;;5062562;28;20028;-77
2021/03/06 22:16:09;;;;;;;151.20;136.85;;;;;;;;;;5061346;28;20047;-77
2021/03/06 22:18:35;;;;;;;143.77;129.27;;;;;;;;;;5062102;28;20039;-77
2021/03/06 22:21:00;;;;;;;150.32;136.70;;;;;;;;;;5062044;28;20082;-77
2021/03/06 22:23:26;;;;;;;194.20;176.43;;;;;;;;;;5059195;28;20028;-77
2021/03/06 22:25:51;;;;;;;414.75;374.00;;;;;;;;;;5056786;28;20611;-77
2021/03/06 22:28:17;;;;;;;145.60;131.98;;;;;;;;;;5066909;28;20107;-77
2021/03/06 22:30:42;;;;;;;285.85;260.55;;;;;;;;;;5064496;28;20067;-77
2021/03/06 22:33:08;;;;;;;171.80;155.32;;;;;;;;;;5067252;28;20029;-76
2021/03/06 22:35:33;;;;;;;155.90;141.25;;;;;;;;;;5067015;28;20111;-77
2021/03/06 22:37:59;;;;;;;155.98;140.77;;;;;;;;;;5060866;28;20120;-76
2021/03/06 22:40:24;;;;;;;165.95;148.85;;;;;;;;;;5063923;28;20518;-77
2021/03/06 22:42:50;;;;;;;156.75;141.02;;;;;;;;;;5059013;28;20091;-76
2021/03/06 22:45:15;;;;;;;152.13;137.65;;;;;;;;;;5062187;28;20040;-77
2021/03/06 22:47:41;;;;;;;156.02;140.65;;;;;;;;;;5062067;28;20028;-77
2021/03/06 22:50:08;;;;;;;150.02;135.18;;;;;;;;;;5068507;28;20029;-77
2021/03/06 22:52:34;;;;;;;158.25;143.75;;;;;;;;;;5059784;28;20469;-77
2021/03/06 22:54:59;;;;;;;153.95;139.57;;;;;;;;;;5066584;28;20028;-77